目前分類:代工模型作品 (45)

瀏覽方式: 標題列表 簡短摘要
發表時間 文章標題 人氣 留言
2017-10-17 TAMIYA 1/12 YAMAHA-M1 (30) (0)
2017-10-16 HASAGAWA 1/48 EA-18G (59) (0)
2017-10-16 HASAGAWA 1/48 FA-18D (40) (0)
2017-06-03 HASAGAWA 1/48 FA-18C (94) (0)
2017-03-13 TAMIYA 1/48 F-16CJ BLOCK 50 (424) (0)
2017-01-08 1/72 R.O.C.AF F-CK-1A (308) (1)
2016-10-22 RODEN 1/144 R.O.C.Air Force C-119G 3189 (248) (1)
2016-10-01 KITTY HAWK 1/48 SEPECAT JAGUAR T.2/T.4 美洲虎雙座教練機 (291) (1)
2016-07-04 1/48 AIRCRAFT WEAPONS:E U.S.AIR-TO-AIR MISSILES & TARGET PODS (101) (1)
2016-05-22 KINETIC 1/48 ROCAF Mirage2000-5EI 機號2016 (339) (3)
2016-02-01 Hasegawa 1/48 愛知九九艦上爆擊機一一型 (114) (2)
2015-11-23 HASEGAWA 1/48中島B6N2艦上攻擊機 天山一二型 (280) (0)
2015-08-11 HASEGAWA 1/48 F-4F PHANTOM II (296) (0)
2015-08-08 KINETIC 1/48 ROCAF Mirage2000-5EI 機號2048 (455) (2)
2014-07-11 AFV 1/48中華民國海軍500MD/ASW反潛直昇機(機號6901,6912) (364) (1)
2014-04-24 1/72 R.O.C.A. MIRAGE 2000-5EI (704) (3)
2014-04-11 hasegawa 休斯300蛋機 (197) (0)
2012-03-31 classic airframes 1/48 F-5A 自由鬥士 (256) (3)
2011-10-26 Kinetic 1/48 中華民國空軍 Mirage2000-5DI (1160) (16)
2011-10-10 1/48 TA-4J SKY HAWK 雙座教練機 (154) (4)
2011-01-03 1/48 KINETIC R.O.C.AIRFORCE 鷹眼2000 (278) (7)
2010-11-06 HASAGAWA 1/48 F-104G-4364&4347 (541) (5)
2010-08-26 小號手 1/72 Xi an FBC-1 Flying Leopard 西安飛豹 (160) (3)
2010-08-14 HASAGAWA 1/48 F-104G-4348 (491) (4)
2010-08-04 HASAGAWA 1/48 A-4E (221) (1)
2010-07-15 小號手1/72瀋陽F-8II FINBACK-B;長鬚鯨-B (135) (2)
2009-10-23 TAMIYA 1/72 MIG-29 (530) (5)
2009-10-08 KINETIC 1/48 ISRAEL(以色列空軍) F-16I (750) (4)
2009-07-30 1/48 空軍官校AT-3高級教練機 0831 (1073) (6)
2009-07-17 HASAGAWA 1/72 F-86F 軍刀機 (184) (2)
2008-09-03 1/72 SU-34 SUKHOI (119) (3)
2008-04-22 Academy 1/48 AH-64D Longbow 攻擊直昇機 (788) (3)
2008-04-22 1/48空軍官校初級教練機Beech T-34C(機號3421) (375) (7)
2008-04-01 Academy 1/48 CH-53E 超級種馬 第464直昇機隊 (670) (11)
2008-02-23 Hasegawa 1/72 F-15J 日本飛行教導隊 (200) (3)
2008-02-21 TAMIYA 1/72 F/A-18E SUPER HORNET (797) (3)
2008-01-12 FUJIMI 1/72 F-14A ALI CAT 伊朗空軍 (520) (3)
2008-01-03 Hasgawa 1/48 F-16A PLUS 第八航空團司令官機 (180) (6)
2007-11-04 1/48中華民國海軍500D直昇機(機號6915) (152) (1)
2007-11-04 1/48中華民國海軍500MD/ASW反潛直昇機(機號6907) (166) (1)
2007-10-19 TAMIYA 1/72達梭RAFALEC (92) (1)
2007-10-19 TAMIYA 1/72 EF-2000歐洲戰士 (162) (0)
2007-08-17 TAMIYA 1/72洛克希德-117A夜鷹 (218) (2)
2007-08-14 TAMIYA 1/72 達梭MIRAGE 2000C (109) (3)
2007-08-08 1/72 TAMIYA洛克希德X-35(F-35) (1028) (7)
找更多相關文章與討論